sensor_id;sensor_type;location;lat;lon;timestamp;pressure;altitude;pressure_sealevel;temperature;humidity
49825;BME280;35714;55.708;37.478;2023-02-12T00:01:18;97939.09;;;1.24;69.95
49825;BME280;35714;55.708;37.478;2023-02-12T00:03:44;97934.38;;;1.26;69.09
49825;BME280;35714;55.708;37.478;2023-02-12T00:06:10;97942.78;;;1.30;69.06
49825;BME280;35714;55.708;37.478;2023-02-12T00:08:37;97961.25;;;1.31;68.47
49825;BME280;35714;55.708;37.478;2023-02-12T00:11:12;97968.25;;;1.32;68.45
49825;BME280;35714;55.708;37.478;2023-02-12T00:13:38;97959.81;;;1.29;68.49
49825;BME280;35714;55.708;37.478;2023-02-12T00:16:08;97964.94;;;1.30;68.06
49825;BME280;35714;55.708;37.478;2023-02-12T00:18:34;97977.09;;;1.26;67.99
49825;BME280;35714;55.708;37.478;2023-02-12T00:21:00;97968.06;;;1.20;67.48
49825;BME280;35714;55.708;37.478;2023-02-12T00:23:26;98004.63;;;1.20;67.07
49825;BME280;35714;55.708;37.478;2023-02-12T00:25:51;97997.88;;;1.11;66.68
49825;BME280;35714;55.708;37.478;2023-02-12T00:28:17;98004.03;;;1.04;66.73
49825;BME280;35714;55.708;37.478;2023-02-12T00:30:43;98006.94;;;0.96;66.88
49825;BME280;35714;55.708;37.478;2023-02-12T00:33:08;98021.72;;;0.92;66.98
49825;BME280;35714;55.708;37.478;2023-02-12T00:35:34;98024.78;;;0.89;66.78
49825;BME280;35714;55.708;37.478;2023-02-12T00:38:00;98030.97;;;0.83;66.67
49825;BME280;35714;55.708;37.478;2023-02-12T00:40:26;98046.56;;;0.73;66.88
49825;BME280;35714;55.708;37.478;2023-02-12T00:42:51;98058.28;;;0.65;66.85
49825;BME280;35714;55.708;37.478;2023-02-12T00:45:17;98068.91;;;0.58;66.49
49825;BME280;35714;55.708;37.478;2023-02-12T00:47:43;98072.00;;;0.55;66.32
49825;BME280;35714;55.708;37.478;2023-02-12T00:50:09;98080.81;;;0.49;66.42
49825;BME280;35714;55.708;37.478;2023-02-12T00:52:35;98091.91;;;0.46;66.30
49825;BME280;35714;55.708;37.478;2023-02-12T00:55:01;98092.91;;;0.45;66.51
49825;BME280;35714;55.708;37.478;2023-02-12T00:57:28;98093.53;;;0.40;66.74
49825;BME280;35714;55.708;37.478;2023-02-12T00:59:55;98098.03;;;0.40;66.77
49825;BME280;35714;55.708;37.478;2023-02-12T01:02:22;98106.66;;;0.42;66.89
49825;BME280;35714;55.708;37.478;2023-02-12T01:04:48;98122.25;;;0.38;66.28
49825;BME280;35714;55.708;37.478;2023-02-12T01:07:13;98109.06;;;0.30;66.51
49825;BME280;35714;55.708;37.478;2023-02-12T01:09:39;98122.41;;;0.30;65.98
49825;BME280;35714;55.708;37.478;2023-02-12T01:12:05;98129.16;;;0.19;65.79
49825;BME280;35714;55.708;37.478;2023-02-12T01:14:30;98135.50;;;0.18;65.64
49825;BME280;35714;55.708;37.478;2023-02-12T01:16:57;98139.16;;;0.10;65.06
49825;BME280;35714;55.708;37.478;2023-02-12T01:19:22;98160.28;;;0.12;64.98
49825;BME280;35714;55.708;37.478;2023-02-12T01:21:48;98172.75;;;0.05;65.18
49825;BME280;35714;55.708;37.478;2023-02-12T01:24:14;98170.09;;;0.05;65.07
49825;BME280;35714;55.708;37.478;2023-02-12T01:26:40;98173.97;;;-0.05;64.86
49825;BME280;35714;55.708;37.478;2023-02-12T01:29:06;98190.16;;;0.01;65.00
49825;BME280;35714;55.708;37.478;2023-02-12T01:31:35;98191.38;;;-0.02;64.14
49825;BME280;35714;55.708;37.478;2023-02-12T01:34:03;98203.66;;;-0.08;64.75
49825;BME280;35714;55.708;37.478;2023-02-12T01:36:29;98219.66;;;-0.08;64.82
49825;BME280;35714;55.708;37.478;2023-02-12T01:38:56;98206.06;;;-0.13;64.84
49825;BME280;35714;55.708;37.478;2023-02-12T01:41:28;98218.38;;;-0.12;64.78
49825;BME280;35714;55.708;37.478;2023-02-12T01:46:35;98238.63;;;-0.17;64.68
49825;BME280;35714;55.708;37.478;2023-02-12T01:49:04;98245.81;;;-0.18;64.99
49825;BME280;35714;55.708;37.478;2023-02-12T01:51:31;98243.13;;;-0.18;64.95
49825;BME280;35714;55.708;37.478;2023-02-12T01:54:00;98254.19;;;-0.21;64.97
49825;BME280;35714;55.708;37.478;2023-02-12T01:56:27;98259.13;;;-0.18;65.32
49825;BME280;35714;55.708;37.478;2023-02-12T01:58:54;98265.00;;;-0.29;65.65
49825;BME280;35714;55.708;37.478;2023-02-12T02:01:25;98269.75;;;-0.25;65.54
49825;BME280;35714;55.708;37.478;2023-02-12T02:03:56;98282.63;;;-0.28;64.87
49825;BME280;35714;55.708;37.478;2023-02-12T02:06:27;98287.31;;;-0.30;65.27
49825;BME280;35714;55.708;37.478;2023-02-12T02:08:55;98292.00;;;-0.32;65.00
49825;BME280;35714;55.708;37.478;2023-02-12T02:11:22;98295.88;;;-0.35;65.00
49825;BME280;35714;55.708;37.478;2023-02-12T02:14:06;98284.78;;;-0.39;65.13
49825;BME280;35714;55.708;37.478;2023-02-12T02:22:20;98338.94;;;-0.31;64.43
49825;BME280;35714;55.708;37.478;2023-02-12T02:33:02;98354.16;;;-0.47;63.46
49825;BME280;35714;55.708;37.478;2023-02-12T02:40:52;98386.50;;;-0.50;63.08
49825;BME280;35714;55.708;37.478;2023-02-12T02:43:27;98374.00;;;-0.49;63.33
49825;BME280;35714;55.708;37.478;2023-02-12T02:45:59;98393.19;;;-0.54;62.76
49825;BME280;35714;55.708;37.478;2023-02-12T02:48:40;98400.44;;;-0.48;62.93
49825;BME280;35714;55.708;37.478;2023-02-12T02:51:13;98405.31;;;-0.51;63.15
49825;BME280;35714;55.708;37.478;2023-02-12T02:53:50;98419.19;;;-0.56;63.02
49825;BME280;35714;55.708;37.478;2023-02-12T02:56:19;98425.72;;;-0.59;63.36
49825;BME280;35714;55.708;37.478;2023-02-12T02:58:52;98431.69;;;-0.57;63.36
49825;BME280;35714;55.708;37.478;2023-02-12T03:01:23;98440.50;;;-0.56;63.22
49825;BME280;35714;55.708;37.478;2023-02-12T03:04:01;98447.19;;;-0.60;63.41
49825;BME280;35714;55.708;37.478;2023-02-12T03:06:35;98451.53;;;-0.59;63.32
49825;BME280;35714;55.708;37.478;2023-02-12T03:09:39;98453.56;;;-0.61;63.32
49825;BME280;35714;55.708;37.478;2023-02-12T03:12:18;98465.22;;;-0.62;63.21
49825;BME280;35714;55.708;37.478;2023-02-12T03:15:11;98460.06;;;-0.64;63.02
49825;BME280;35714;55.708;37.478;2023-02-12T03:17:40;98476.59;;;-0.68;63.49
49825;BME280;35714;55.708;37.478;2023-02-12T03:20:29;98477.22;;;-0.66;63.57
49825;BME280;35714;55.708;37.478;2023-02-12T03:25:32;98494.84;;;-0.65;63.85
49825;BME280;35714;55.708;37.478;2023-02-12T03:28:05;98504.78;;;-0.59;63.62
49825;BME280;35714;55.708;37.478;2023-02-12T03:30:42;98504.13;;;-0.61;63.17
49825;BME280;35714;55.708;37.478;2023-02-12T03:36:00;98533.59;;;-0.78;63.83
49825;BME280;35714;55.708;37.478;2023-02-12T03:38:43;98537.84;;;-0.83;63.99
49825;BME280;35714;55.708;37.478;2023-02-12T03:41:33;98544.97;;;-0.84;63.79
49825;BME280;35714;55.708;37.478;2023-02-12T03:46:44;98548.47;;;-0.83;62.75
49825;BME280;35714;55.708;37.478;2023-02-12T03:49:26;98565.38;;;-0.91;62.96
49825;BME280;35714;55.708;37.478;2023-02-12T03:51:54;98562.88;;;-0.93;62.75
49825;BME280;35714;55.708;37.478;2023-02-12T03:54:21;98563.97;;;-1.02;62.53
49825;BME280;35714;55.708;37.478;2023-02-12T03:59:34;98589.72;;;-1.02;63.14
49825;BME280;35714;55.708;37.478;2023-02-12T04:02:00;98573.75;;;-1.02;62.66
49825;BME280;35714;55.708;37.478;2023-02-12T04:04:26;98577.44;;;-1.03;62.48
49825;BME280;35714;55.708;37.478;2023-02-12T04:06:53;98580.75;;;-1.01;62.02
49825;BME280;35714;55.708;37.478;2023-02-12T04:09:20;98594.41;;;-1.04;61.57
49825;BME280;35714;55.708;37.478;2023-02-12T04:12:08;98597.06;;;-1.04;61.28
49825;BME280;35714;55.708;37.478;2023-02-12T04:26:20;98624.19;;;-1.24;60.14
49825;BME280;35714;55.708;37.478;2023-02-12T04:29:05;98654.53;;;-1.18;60.00
49825;BME280;35714;55.708;37.478;2023-02-12T04:31:38;98657.75;;;-1.23;59.76
49825;BME280;35714;55.708;37.478;2023-02-12T04:37:11;98661.06;;;-1.21;59.88
49825;BME280;35714;55.708;37.478;2023-02-12T04:39:41;98666.75;;;-1.24;59.03
49825;BME280;35714;55.708;37.478;2023-02-12T04:42:08;98674.06;;;-1.26;58.70
49825;BME280;35714;55.708;37.478;2023-02-12T04:44:38;98680.06;;;-1.32;58.94
49825;BME280;35714;55.708;37.478;2023-02-12T04:47:04;98688.72;;;-1.30;58.83
49825;BME280;35714;55.708;37.478;2023-02-12T04:49:30;98690.34;;;-1.29;58.69
49825;BME280;35714;55.708;37.478;2023-02-12T04:51:56;98703.47;;;-1.28;58.36
49825;BME280;35714;55.708;37.478;2023-02-12T04:54:22;98710.34;;;-1.33;58.44
49825;BME280;35714;55.708;37.478;2023-02-12T04:56:48;98703.38;;;-1.34;58.26
49825;BME280;35714;55.708;37.478;2023-02-12T04:59:14;98717.44;;;-1.25;57.71
49825;BME280;35714;55.708;37.478;2023-02-12T05:01:41;98720.13;;;-1.25;57.80
49825;BME280;35714;55.708;37.478;2023-02-12T05:04:09;98706.31;;;-1.29;57.55
49825;BME280;35714;55.708;37.478;2023-02-12T05:06:37;98723.94;;;-1.28;57.47
49825;BME280;35714;55.708;37.478;2023-02-12T05:09:04;98727.00;;;-1.39;57.83
49825;BME280;35714;55.708;37.478;2023-02-12T05:11:29;98747.59;;;-1.33;57.86
49825;BME280;35714;55.708;37.478;2023-02-12T05:13:55;98754.88;;;-1.35;58.31
49825;BME280;35714;55.708;37.478;2023-02-12T05:16:21;98748.41;;;-1.33;58.62
49825;BME280;35714;55.708;37.478;2023-02-12T05:18:47;98756.19;;;-1.31;58.48
49825;BME280;35714;55.708;37.478;2023-02-12T05:21:13;98756.91;;;-1.37;58.38
49825;BME280;35714;55.708;37.478;2023-02-12T05:23:39;98771.00;;;-1.29;59.06
49825;BME280;35714;55.708;37.478;2023-02-12T05:26:09;98774.47;;;-1.28;58.87
49825;BME280;35714;55.708;37.478;2023-02-12T05:28:35;98781.81;;;-1.30;58.84
49825;BME280;35714;55.708;37.478;2023-02-12T05:31:03;98793.78;;;-1.34;59.03
49825;BME280;35714;55.708;37.478;2023-02-12T05:33:29;98795.44;;;-1.33;59.34
49825;BME280;35714;55.708;37.478;2023-02-12T05:35:55;98816.03;;;-1.27;59.10
49825;BME280;35714;55.708;37.478;2023-02-12T05:38:21;98801.75;;;-1.34;58.90
49825;BME280;35714;55.708;37.478;2023-02-12T05:40:46;98818.38;;;-1.32;58.64
49825;BME280;35714;55.708;37.478;2023-02-12T05:43:12;98823.03;;;-1.34;59.10
49825;BME280;35714;55.708;37.478;2023-02-12T05:45:38;98823.69;;;-1.32;59.01
49825;BME280;35714;55.708;37.478;2023-02-12T05:48:05;98810.38;;;-1.32;58.74
49825;BME280;35714;55.708;37.478;2023-02-12T05:50:31;98832.34;;;-1.30;58.70
49825;BME280;35714;55.708;37.478;2023-02-12T05:53:06;98833.16;;;-1.30;58.30
49825;BME280;35714;55.708;37.478;2023-02-12T05:55:32;98834.31;;;-1.32;58.13
49825;BME280;35714;55.708;37.478;2023-02-12T05:57:57;98847.63;;;-1.32;57.71
49825;BME280;35714;55.708;37.478;2023-02-12T06:00:23;98844.81;;;-1.39;57.87
49825;BME280;35714;55.708;37.478;2023-02-12T06:02:49;98853.31;;;-1.43;57.65
49825;BME280;35714;55.708;37.478;2023-02-12T06:05:14;98843.34;;;-1.41;58.07
49825;BME280;35714;55.708;37.478;2023-02-12T06:07:40;98856.66;;;-1.41;57.93
49825;BME280;35714;55.708;37.478;2023-02-12T06:10:06;98880.88;;;-1.36;57.92
49825;BME280;35714;55.708;37.478;2023-02-12T06:12:32;98872.22;;;-1.30;57.47
49825;BME280;35714;55.708;37.478;2023-02-12T06:14:57;98883.50;;;-1.28;56.94
49825;BME280;35714;55.708;37.478;2023-02-12T06:17:23;98886.53;;;-1.31;56.26
49825;BME280;35714;55.708;37.478;2023-02-12T06:19:49;98897.16;;;-1.31;56.20
49825;BME280;35714;55.708;37.478;2023-02-12T06:22:14;98895.81;;;-1.35;56.69
49825;BME280;35714;55.708;37.478;2023-02-12T06:24:40;98915.78;;;-1.31;56.75
49825;BME280;35714;55.708;37.478;2023-02-12T06:27:05;98913.41;;;-1.26;56.41
49825;BME280;35714;55.708;37.478;2023-02-12T06:29:31;98922.75;;;-1.30;56.01
49825;BME280;35714;55.708;37.478;2023-02-12T06:31:57;98943.34;;;-1.24;55.61
49825;BME280;35714;55.708;37.478;2023-02-12T06:34:22;98951.00;;;-1.21;55.64
49825;BME280;35714;55.708;37.478;2023-02-12T06:36:48;98954.13;;;-1.17;55.67
49825;BME280;35714;55.708;37.478;2023-02-12T06:39:15;98970.25;;;-1.11;55.56
49825;BME280;35714;55.708;37.478;2023-02-12T06:41:41;98966.25;;;-1.06;54.54
49825;BME280;35714;55.708;37.478;2023-02-12T06:44:10;98956.63;;;-1.16;54.55
49825;BME280;35714;55.708;37.478;2023-02-12T06:46:36;98970.91;;;-1.17;54.72
49825;BME280;35714;55.708;37.478;2023-02-12T06:49:02;98975.28;;;-1.24;54.72
49825;BME280;35714;55.708;37.478;2023-02-12T06:51:28;98977.91;;;-1.16;54.32
49825;BME280;35714;55.708;37.478;2023-02-12T06:53:54;98992.19;;;-1.17;54.15
49825;BME280;35714;55.708;37.478;2023-02-12T06:56:22;99000.69;;;-1.21;54.28
49825;BME280;35714;55.708;37.478;2023-02-12T06:58:56;99017.66;;;-1.22;54.27
49825;BME280;35714;55.708;37.478;2023-02-12T07:01:25;99002.88;;;-1.25;54.02
49825;BME280;35714;55.708;37.478;2023-02-12T07:03:58;99007.19;;;-1.32;54.23
49825;BME280;35714;55.708;37.478;2023-02-12T07:06:26;99013.19;;;-1.30;54.10
49825;BME280;35714;55.708;37.478;2023-02-12T07:08:53;99014.81;;;-1.29;53.81
49825;BME280;35714;55.708;37.478;2023-02-12T07:11:22;99022.16;;;-1.31;53.63
49825;BME280;35714;55.708;37.478;2023-02-12T07:13:48;99030.78;;;-1.29;53.75
49825;BME280;35714;55.708;37.478;2023-02-12T07:16:15;99032.28;;;-1.27;53.82
49825;BME280;35714;55.708;37.478;2023-02-12T07:18:41;99043.75;;;-1.26;54.12
49825;BME280;35714;55.708;37.478;2023-02-12T07:21:08;99031.13;;;-1.24;53.22
49825;BME280;35714;55.708;37.478;2023-02-12T07:23:34;99042.09;;;-1.19;53.34
49825;BME280;35714;55.708;37.478;2023-02-12T07:26:03;99042.91;;;-1.18;53.32
49825;BME280;35714;55.708;37.478;2023-02-12T07:28:31;99039.75;;;-1.14;52.67
49825;BME280;35714;55.708;37.478;2023-02-12T07:31:09;99040.09;;;-1.17;52.71
49825;BME280;35714;55.708;37.478;2023-02-12T07:33:35;99056.03;;;-1.17;53.28
49825;BME280;35714;55.708;37.478;2023-02-12T07:36:05;99056.72;;;-1.06;52.96
49825;BME280;35714;55.708;37.478;2023-02-12T07:38:31;99068.31;;;-0.99;52.50
49825;BME280;35714;55.708;37.478;2023-02-12T07:41:15;99069.16;;;-0.91;52.26
49825;BME280;35714;55.708;37.478;2023-02-12T07:43:42;99072.28;;;-0.87;51.83
49825;BME280;35714;55.708;37.478;2023-02-12T07:46:10;99073.31;;;-0.88;52.00
49825;BME280;35714;55.708;37.478;2023-02-12T07:48:36;99081.59;;;-0.83;51.13
49825;BME280;35714;55.708;37.478;2023-02-12T07:51:03;99095.59;;;-0.89;51.36
49825;BME280;35714;55.708;37.478;2023-02-12T07:53:29;99081.13;;;-0.95;51.35
49825;BME280;35714;55.708;37.478;2023-02-12T07:56:06;99106.56;;;-0.92;51.33
49825;BME280;35714;55.708;37.478;2023-02-12T07:58:32;99096.25;;;-0.95;51.34
49825;BME280;35714;55.708;37.478;2023-02-12T08:00:58;99109.75;;;-0.97;50.96
49825;BME280;35714;55.708;37.478;2023-02-12T08:03:23;99109.25;;;-1.00;51.13
49825;BME280;35714;55.708;37.478;2023-02-12T08:05:49;99117.59;;;-1.12;51.17
49825;BME280;35714;55.708;37.478;2023-02-12T08:08:14;99127.53;;;-0.97;51.32
49825;BME280;35714;55.708;37.478;2023-02-12T08:10:40;99137.69;;;-0.93;51.13
49825;BME280;35714;55.708;37.478;2023-02-12T08:13:06;99130.84;;;-0.87;50.68
49825;BME280;35714;55.708;37.478;2023-02-12T08:15:31;99135.50;;;-0.81;50.57
49825;BME280;35714;55.708;37.478;2023-02-12T08:17:58;99147.63;;;-0.70;51.03
49825;BME280;35714;55.708;37.478;2023-02-12T08:20:24;99145.47;;;-0.58;50.57
49825;BME280;35714;55.708;37.478;2023-02-12T08:22:49;99138.78;;;-0.54;49.66
49825;BME280;35714;55.708;37.478;2023-02-12T08:25:15;99151.44;;;-0.56;49.64
49825;BME280;35714;55.708;37.478;2023-02-12T08:27:41;99156.59;;;-0.55;49.98
49825;BME280;35714;55.708;37.478;2023-02-12T08:30:07;99160.41;;;-0.57;49.63
49825;BME280;35714;55.708;37.478;2023-02-12T08:32:33;99161.75;;;-0.53;49.51
49825;BME280;35714;55.708;37.478;2023-02-12T08:34:58;99175.72;;;-0.51;49.65
49825;BME280;35714;55.708;37.478;2023-02-12T08:37:24;99171.38;;;-0.52;49.32
49825;BME280;35714;55.708;37.478;2023-02-12T08:39:50;99171.72;;;-0.55;49.66
49825;BME280;35714;55.708;37.478;2023-02-12T08:42:15;99173.88;;;-0.50;49.33
49825;BME280;35714;55.708;37.478;2023-02-12T08:44:41;99174.38;;;-0.55;49.03
49825;BME280;35714;55.708;37.478;2023-02-12T08:47:07;99185.41;;;-0.58;49.55
49825;BME280;35714;55.708;37.478;2023-02-12T08:49:34;99190.72;;;-0.50;49.38
49825;BME280;35714;55.708;37.478;2023-02-12T08:52:00;99187.69;;;-0.39;49.40
49825;BME280;35714;55.708;37.478;2023-02-12T08:54:28;99195.66;;;-0.30;48.65
49825;BME280;35714;55.708;37.478;2023-02-12T08:56:56;99181.03;;;-0.34;48.30
49825;BME280;35714;55.708;37.478;2023-02-12T08:59:23;99193.28;;;-0.25;47.96
49825;BME280;35714;55.708;37.478;2023-02-12T09:01:51;99194.28;;;-0.18;47.61
49825;BME280;35714;55.708;37.478;2023-02-12T09:04:20;99189.94;;;-0.19;47.14
49825;BME280;35714;55.708;37.478;2023-02-12T09:06:47;99192.94;;;-0.22;47.37
49825;BME280;35714;55.708;37.478;2023-02-12T09:09:13;99215.28;;;-0.23;47.45
49825;BME280;35714;55.708;37.478;2023-02-12T09:11:40;99222.25;;;-0.22;47.45
49825;BME280;35714;55.708;37.478;2023-02-12T09:14:09;99229.41;;;-0.06;47.60
49825;BME280;35714;55.708;37.478;2023-02-12T09:16:36;99234.47;;;0.20;47.63
49825;BME280;35714;55.708;37.478;2023-02-12T09:19:03;99221.78;;;0.30;45.77
49825;BME280;35714;55.708;37.478;2023-02-12T09:21:29;99226.66;;;0.10;46.05
49825;BME280;35714;55.708;37.478;2023-02-12T09:23:54;99211.19;;;0.06;46.18
49825;BME280;35714;55.708;37.478;2023-02-12T09:26:22;99235.84;;;0.08;46.19
49825;BME280;35714;55.708;37.478;2023-02-12T09:28:50;99240.81;;;0.11;46.70
49825;BME280;35714;55.708;37.478;2023-02-12T09:31:19;99255.09;;;0.26;46.86
49825;BME280;35714;55.708;37.478;2023-02-12T09:33:47;99248.69;;;0.52;45.74
49825;BME280;35714;55.708;37.478;2023-02-12T09:36:15;99247.75;;;0.91;45.91
49825;BME280;35714;55.708;37.478;2023-02-12T09:38:41;99244.28;;;1.14;44.75
49825;BME280;35714;55.708;37.478;2023-02-12T09:46:49;99250.53;;;2.12;44.19
49825;BME280;35714;55.708;37.478;2023-02-12T09:51:48;99236.53;;;2.10;42.54
49825;BME280;35714;55.708;37.478;2023-02-12T09:54:21;99243.56;;;2.11;42.21
49825;BME280;35714;55.708;37.478;2023-02-12T09:56:54;99254.88;;;2.28;42.40
49825;BME280;35714;55.708;37.478;2023-02-12T09:59:40;99255.72;;;2.28;42.84
49825;BME280;35714;55.708;37.478;2023-02-12T10:02:15;99264.84;;;2.49;43.01
49825;BME280;35714;55.708;37.478;2023-02-12T10:04:43;99253.78;;;3.10;42.65
49825;BME280;35714;55.708;37.478;2023-02-12T10:07:40;99271.53;;;4.11;41.77
49825;BME280;35714;55.708;37.478;2023-02-12T10:13:06;99270.13;;;6.32;37.39
49825;BME280;35714;55.708;37.478;2023-02-12T10:26:40;99281.91;;;5.24;37.01
49825;BME280;35714;55.708;37.478;2023-02-12T10:29:14;99299.56;;;4.85;37.90
49825;BME280;35714;55.708;37.478;2023-02-12T10:31:45;99288.91;;;5.05;38.41
49825;BME280;35714;55.708;37.478;2023-02-12T10:34:18;99301.34;;;5.26;37.29
49825;BME280;35714;55.708;37.478;2023-02-12T10:36:46;99306.50;;;5.21;36.74
49825;BME280;35714;55.708;37.478;2023-02-12T10:39:25;99309.19;;;5.21;37.85
49825;BME280;35714;55.708;37.478;2023-02-12T10:42:02;99304.63;;;5.15;36.97
49825;BME280;35714;55.708;37.478;2023-02-12T10:44:31;99314.91;;;4.91;38.04
49825;BME280;35714;55.708;37.478;2023-02-12T10:46:56;99312.00;;;4.86;36.56
49825;BME280;35714;55.708;37.478;2023-02-12T10:49:22;99311.41;;;4.21;37.23
49825;BME280;35714;55.708;37.478;2023-02-12T10:54:43;99317.91;;;4.05;39.72
49825;BME280;35714;55.708;37.478;2023-02-12T10:57:26;99318.34;;;4.37;38.44
49825;BME280;35714;55.708;37.478;2023-02-12T10:59:54;99331.88;;;4.98;39.00
49825;BME280;35714;55.708;37.478;2023-02-12T11:02:29;99341.16;;;6.18;37.36
49825;BME280;35714;55.708;37.478;2023-02-12T11:04:57;99334.44;;;7.26;35.99
49825;BME280;35714;55.708;37.478;2023-02-12T11:07:24;99339.41;;;8.18;31.84
49825;BME280;35714;55.708;37.478;2023-02-12T11:09:52;99340.56;;;8.28;32.42
49825;BME280;35714;55.708;37.478;2023-02-12T11:15:02;99359.25;;;9.29;31.70
49825;BME280;35714;55.708;37.478;2023-02-12T11:17:34;99374.34;;;9.67;31.53
49825;BME280;35714;55.708;37.478;2023-02-12T11:20:39;99355.84;;;10.30;30.57
49825;BME280;35714;55.708;37.478;2023-02-12T11:23:22;99364.72;;;10.49;30.03
49825;BME280;35714;55.708;37.478;2023-02-12T11:28:56;99387.09;;;9.48;30.86
49825;BME280;35714;55.708;37.478;2023-02-12T11:31:32;99393.03;;;8.64;31.08
49825;BME280;35714;55.708;37.478;2023-02-12T11:34:17;99384.84;;;8.27;32.38
49825;BME280;35714;55.708;37.478;2023-02-12T11:36:46;99388.84;;;8.18;32.82
49825;BME280;35714;55.708;37.478;2023-02-12T11:39:34;99393.31;;;8.56;31.62
49825;BME280;35714;55.708;37.478;2023-02-12T11:42:03;99404.84;;;9.26;31.30
49825;BME280;35714;55.708;37.478;2023-02-12T11:44:36;99396.13;;;9.72;29.96
49825;BME280;35714;55.708;37.478;2023-02-12T11:47:09;99393.41;;;10.15;29.95
49825;BME280;35714;55.708;37.478;2023-02-12T11:49:58;99410.59;;;10.08;29.68
49825;BME280;35714;55.708;37.478;2023-02-12T11:52:28;99410.97;;;9.02;29.51
49825;BME280;35714;55.708;37.478;2023-02-12T11:55:02;99421.50;;;7.78;31.37
49825;BME280;35714;55.708;37.478;2023-02-12T11:57:49;99408.09;;;7.19;32.77
49825;BME280;35714;55.708;37.478;2023-02-12T12:00:16;99437.28;;;6.64;33.47
49825;BME280;35714;55.708;37.478;2023-02-12T12:02:58;99426.50;;;6.24;33.94
49825;BME280;35714;55.708;37.478;2023-02-12T12:05:30;99434.38;;;6.12;34.22
49825;BME280;35714;55.708;37.478;2023-02-12T12:08:04;99450.47;;;5.92;34.20
49825;BME280;35714;55.708;37.478;2023-02-12T12:10:43;99449.50;;;5.45;34.56
49825;BME280;35714;55.708;37.478;2023-02-12T12:13:18;99459.72;;;5.21;35.43
49825;BME280;35714;55.708;37.478;2023-02-12T12:16:12;99463.13;;;5.36;35.48
49825;BME280;35714;55.708;37.478;2023-02-12T12:19:05;99471.38;;;5.35;35.37
49825;BME280;35714;55.708;37.478;2023-02-12T12:22:02;99466.69;;;5.09;35.36
49825;BME280;35714;55.708;37.478;2023-02-12T12:24:51;99468.94;;;4.42;35.94
49825;BME280;35714;55.708;37.478;2023-02-12T12:27:37;99483.47;;;3.89;36.90
49825;BME280;35714;55.708;37.478;2023-02-12T12:30:40;99485.53;;;3.51;37.33
49825;BME280;35714;55.708;37.478;2023-02-12T12:33:25;99501.81;;;3.04;38.27
49825;BME280;35714;55.708;37.478;2023-02-12T12:36:32;99506.94;;;2.61;39.07
49825;BME280;35714;55.708;37.478;2023-02-12T12:39:15;99506.25;;;2.21;39.69
49825;BME280;35714;55.708;37.478;2023-02-12T12:52:37;99530.25;;;2.52;39.85
49825;BME280;35714;55.708;37.478;2023-02-12T12:55:43;99532.03;;;3.43;38.77
49825;BME280;35714;55.708;37.478;2023-02-12T13:04:01;99526.72;;;3.79;37.25
49825;BME280;35714;55.708;37.478;2023-02-12T13:06:38;99546.66;;;3.92;37.16
49825;BME280;35714;55.708;37.478;2023-02-12T13:16:51;99566.69;;;4.11;37.60
49825;BME280;35714;55.708;37.478;2023-02-12T13:24:48;99562.63;;;4.15;37.36
49825;BME280;35714;55.708;37.478;2023-02-12T13:27:22;99565.09;;;4.38;36.64
49825;BME280;35714;55.708;37.478;2023-02-12T13:32:36;99566.00;;;3.87;36.99
49825;BME280;35714;55.708;37.478;2023-02-12T13:35:14;99576.75;;;3.28;37.72
49825;BME280;35714;55.708;37.478;2023-02-12T13:37:44;99582.25;;;3.11;38.68
49825;BME280;35714;55.708;37.478;2023-02-12T13:40:19;99585.97;;;3.10;38.22
49825;BME280;35714;55.708;37.478;2023-02-12T13:45:50;99592.53;;;2.46;39.25
49825;BME280;35714;55.708;37.478;2023-02-12T14:05:18;99608.25;;;-0.35;44.64
49825;BME280;35714;55.708;37.478;2023-02-12T14:07:57;99594.16;;;-0.54;45.13
49825;BME280;35714;55.708;37.478;2023-02-12T14:10:34;99604.78;;;-0.62;45.56
49825;BME280;35714;55.708;37.478;2023-02-12T14:13:19;99605.69;;;-0.80;45.90
49825;BME280;35714;55.708;37.478;2023-02-12T14:15:55;99622.16;;;-1.02;46.36
49825;BME280;35714;55.708;37.478;2023-02-12T14:18:31;99619.31;;;-1.27;46.99
49825;BME280;35714;55.708;37.478;2023-02-12T14:23:36;99634.44;;;-1.64;48.26
49825;BME280;35714;55.708;37.478;2023-02-12T14:36:44;99659.34;;;-2.10;49.89
49825;BME280;35714;55.708;37.478;2023-02-12T14:41:49;99663.84;;;-2.21;50.35
49825;BME280;35714;55.708;37.478;2023-02-12T14:50:00;99672.78;;;-2.49;51.00
49825;BME280;35714;55.708;37.478;2023-02-12T14:52:37;99679.09;;;-2.60;51.19
49825;BME280;35714;55.708;37.478;2023-02-12T14:55:06;99680.78;;;-2.69;51.49
49825;BME280;35714;55.708;37.478;2023-02-12T14:57:43;99683.03;;;-2.74;51.56
49825;BME280;35714;55.708;37.478;2023-02-12T15:02:43;99683.91;;;-2.93;51.78
49825;BME280;35714;55.708;37.478;2023-02-12T15:05:21;99696.47;;;-2.85;52.11
49825;BME280;35714;55.708;37.478;2023-02-12T15:07:49;99695.22;;;-2.91;52.32
49825;BME280;35714;55.708;37.478;2023-02-12T15:10:22;99707.94;;;-2.95;52.80
49825;BME280;35714;55.708;37.478;2023-02-12T15:21:25;99727.63;;;-3.07;53.06
49825;BME280;35714;55.708;37.478;2023-02-12T15:26:38;99725.50;;;-3.13;53.66
49825;BME280;35714;55.708;37.478;2023-02-12T15:29:06;99731.94;;;-3.16;53.77
49825;BME280;35714;55.708;37.478;2023-02-12T15:31:33;99730.13;;;-3.15;53.83
49825;BME280;35714;55.708;37.478;2023-02-12T15:34:01;99726.94;;;-3.19;53.86
49825;BME280;35714;55.708;37.478;2023-02-12T15:36:30;99727.75;;;-3.18;54.01
49825;BME280;35714;55.708;37.478;2023-02-12T15:39:03;99731.94;;;-3.16;53.75
49825;BME280;35714;55.708;37.478;2023-02-12T15:41:37;99733.06;;;-3.18;54.07
49825;BME280;35714;55.708;37.478;2023-02-12T15:44:18;99726.34;;;-3.22;53.86
49825;BME280;35714;55.708;37.478;2023-02-12T15:47:01;99725.53;;;-3.23;54.07
49825;BME280;35714;55.708;37.478;2023-02-12T15:49:33;99719.94;;;-3.30;54.14
49825;BME280;35714;55.708;37.478;2023-02-12T15:52:10;99732.19;;;-3.29;54.10
49825;BME280;35714;55.708;37.478;2023-02-12T15:54:40;99729.81;;;-3.32;54.24
49825;BME280;35714;55.708;37.478;2023-02-12T15:57:11;99739.47;;;-3.31;54.38